Time;durP1;ratioP1;P1;durP2;ratioP2;P2;SDS_P1;SDS_P2;PMS_P1;PMS_P2;Temp;Humidity;BMP_temperature;BMP_pressure;BME280_temperature;BME280_humidity;BME280_pressure;Samples;Min_cycle;Max_cycle;Signal;HPM_P1;HPM_P2
2024/01/17 00:01:14;;;;;;;16.00;12.00;;;-2.10;99.90;;;;;;5055535;28;20212;-70
2024/01/17 00:03:39;;;;;;;14.90;10.40;;;-2.00;99.90;;;;;;5055852;28;20193;-70
2024/01/17 00:06:05;;;;;;;16.23;11.50;;;-2.00;99.90;;;;;;5055380;28;20439;-70
2024/01/17 00:08:31;;;;;;;13.47;11.53;;;-2.00;99.90;;;;;;5051732;28;20249;-70
2024/01/17 00:10:56;;;;;;;16.10;11.70;;;-2.00;99.90;;;;;;5046418;28;20244;-70
2024/01/17 00:13:21;;;;;;;15.73;11.17;;;-2.00;99.90;;;;;;5055638;28;20174;-70
2024/01/17 00:15:47;;;;;;;12.07;10.27;;;-2.00;99.90;;;;;;5053876;28;20185;-70
2024/01/17 00:18:13;;;;;;;19.57;13.00;;;-2.00;99.90;;;;;;5052657;28;20643;-70
2024/01/17 00:20:38;;;;;;;19.97;11.50;;;-2.00;99.90;;;;;;5035482;28;20244;-70
2024/01/17 00:23:04;;;;;;;15.40;11.17;;;-2.00;99.90;;;;;;5044414;28;20193;-72
2024/01/17 00:25:29;;;;;;;18.00;11.10;;;-2.00;99.90;;;;;;5040037;28;20173;-70
2024/01/17 00:27:55;;;;;;;17.40;11.80;;;-1.90;99.90;;;;;;5054954;28;20174;-70
2024/01/17 00:30:20;;;;;;;17.63;10.80;;;-1.90;99.90;;;;;;5040780;28;20240;-70
2024/01/17 00:32:46;;;;;;;18.10;12.77;;;-2.00;99.90;;;;;;5055328;28;20170;-70
2024/01/17 00:35:11;;;;;;;14.07;11.07;;;-2.00;99.90;;;;;;5055276;28;20716;-70
2024/01/17 00:37:37;;;;;;;16.70;11.47;;;-1.90;99.90;;;;;;5054008;28;20728;-70
2024/01/17 00:40:03;;;;;;;15.63;10.27;;;-1.90;99.90;;;;;;5038630;28;20179;-70
2024/01/17 00:42:29;;;;;;;16.13;11.30;;;-1.90;99.90;;;;;;5045734;28;20194;-71
2024/01/17 00:44:54;;;;;;;15.03;11.20;;;-1.90;99.90;;;;;;5050702;28;20439;-70
2024/01/17 00:47:20;;;;;;;12.10;9.43;;;-1.80;99.90;;;;;;5038075;28;20793;-71
2024/01/17 00:49:46;;;;;;;17.43;11.23;;;-1.80;99.90;;;;;;5038101;28;20545;-70
2024/01/17 00:52:11;;;;;;;20.30;10.73;;;-1.80;99.90;;;;;;5045704;28;20231;-70
2024/01/17 00:54:37;;;;;;;13.27;10.20;;;-1.80;99.90;;;;;;5054070;28;20180;-70
2024/01/17 00:57:03;;;;;;;18.17;9.97;;;-1.90;99.90;;;;;;5053086;28;20586;-70
2024/01/17 00:59:28;;;;;;;15.50;11.67;;;-1.90;99.90;;;;;;5040075;28;20267;-70
2024/01/17 01:01:54;;;;;;;13.00;10.37;;;-2.00;99.90;;;;;;5051482;28;20884;-70
2024/01/17 01:04:19;;;;;;;16.60;10.67;;;-2.00;99.90;;;;;;5053867;28;20678;-70
2024/01/17 01:06:45;;;;;;;16.07;12.27;;;-2.00;99.90;;;;;;5053582;28;20258;-70
2024/01/17 01:09:10;;;;;;;13.07;10.57;;;-2.10;99.90;;;;;;5053853;28;20189;-70
2024/01/17 01:11:36;;;;;;;15.37;11.30;;;-2.00;99.90;;;;;;5051579;28;20273;-70
2024/01/17 01:14:02;;;;;;;20.67;10.43;;;-2.00;99.90;;;;;;5053577;28;20189;-70
2024/01/17 01:16:28;;;;;;;12.67;10.90;;;-1.90;99.90;;;;;;5045873;28;20533;-70
2024/01/17 01:18:53;;;;;;;13.40;10.17;;;-1.90;99.90;;;;;;5037931;28;20436;-70
2024/01/17 01:21:19;;;;;;;16.23;9.87;;;-1.80;99.90;;;;;;5034460;28;20225;-70
2024/01/17 01:23:46;;;;;;;14.30;11.57;;;-1.80;99.90;;;;;;5042497;28;20201;-70
2024/01/17 01:26:11;;;;;;;11.50;9.67;;;-1.70;99.90;;;;;;5053697;28;20186;-70
2024/01/17 01:28:37;;;;;;;15.60;10.40;;;-1.70;99.90;;;;;;5053995;28;20959;-70
2024/01/17 01:31:03;;;;;;;14.97;10.23;;;-1.60;99.90;;;;;;5044973;28;20198;-70
2024/01/17 01:33:28;;;;;;;15.50;10.73;;;-1.60;99.90;;;;;;5040170;28;20553;-70
2024/01/17 01:35:54;;;;;;;15.90;10.70;;;-1.50;99.90;;;;;;5053604;28;20249;-70
2024/01/17 01:38:19;;;;;;;20.80;10.77;;;-1.50;99.90;;;;;;5053175;28;20596;-70
2024/01/17 01:40:45;;;;;;;15.90;11.07;;;-1.50;99.90;;;;;;5050599;28;20212;-71
2024/01/17 01:43:21;;;;;;;13.27;11.30;;;-1.40;99.90;;;;;;5044221;28;20288;-70
2024/01/17 01:46:03;;;;;;;13.63;10.93;;;-1.40;99.90;;;;;;5043862;28;20193;-70
2024/01/17 01:48:29;;;;;;;15.53;11.20;;;-1.40;99.90;;;;;;5052350;28;20496;-70
2024/01/17 01:50:55;;;;;;;15.53;11.20;;;-1.30;99.90;;;;;;5053043;28;20824;-70
2024/01/17 01:53:21;;;;;;;15.60;10.77;;;-1.30;99.90;;;;;;5049718;28;20463;-70
2024/01/17 01:55:47;;;;;;;15.40;11.63;;;-1.30;99.90;;;;;;5051170;28;20549;-70
2024/01/17 01:58:14;;;;;;;16.33;10.60;;;-1.30;99.90;;;;;;5053050;28;20185;-70
2024/01/17 02:00:39;;;;;;;32.33;14.23;;;-1.30;99.90;;;;;;5053424;28;20197;-70
2024/01/17 02:03:05;;;;;;;17.30;11.10;;;-1.10;99.90;;;;;;5047605;28;21037;-70
2024/01/17 02:05:31;;;;;;;16.77;10.47;;;-1.10;99.90;;;;;;5052793;28;20432;-70
2024/01/17 02:07:57;;;;;;;15.23;9.70;;;-1.10;99.90;;;;;;5052269;28;20623;-70
2024/01/17 02:10:23;;;;;;;15.33;11.00;;;-1.10;99.90;;;;;;5049778;28;20198;-70
2024/01/17 02:12:49;;;;;;;16.27;11.87;;;-1.10;99.90;;;;;;5052449;28;20451;-70
2024/01/17 02:15:14;;;;;;;15.47;11.30;;;-1.10;99.90;;;;;;5052747;28;20174;-70
2024/01/17 02:17:41;;;;;;;13.83;11.47;;;-1.10;99.90;;;;;;5052485;28;20424;-70
2024/01/17 02:20:07;;;;;;;14.13;11.13;;;-1.10;99.90;;;;;;5052830;28;20569;-70
2024/01/17 02:22:33;;;;;;;14.27;12.43;;;-1.10;99.90;;;;;;5046723;28;20468;-70
2024/01/17 02:25:03;;;;;;;14.40;9.90;;;-1.30;99.90;;;;;;5040645;28;20432;-70
2024/01/17 02:27:29;;;;;;;15.53;10.03;;;-1.50;99.90;;;;;;5032917;28;20174;-70
2024/01/17 02:29:54;;;;;;;17.63;10.77;;;-1.50;99.90;;;;;;5051356;28;20524;-70
2024/01/17 02:32:21;;;;;;;13.93;9.40;;;-1.50;99.90;;;;;;5051221;28;20199;-70
2024/01/17 02:34:46;;;;;;;12.90;10.47;;;-1.40;99.90;;;;;;5051783;28;20174;-70
2024/01/17 02:37:14;;;;;;;15.70;9.30;;;-1.40;99.90;;;;;;5052152;28;20436;-70
2024/01/17 02:39:39;;;;;;;11.10;8.87;;;-1.30;99.90;;;;;;5048415;28;20179;-70
2024/01/17 02:42:05;;;;;;;12.23;9.90;;;-1.20;99.90;;;;;;5049049;28;20496;-71
2024/01/17 02:44:31;;;;;;;11.53;9.47;;;-1.10;99.90;;;;;;5052177;28;20244;-71
2024/01/17 02:46:56;;;;;;;14.40;10.97;;;-1.10;99.90;;;;;;5042681;28;20193;-71
2024/01/17 02:49:22;;;;;;;14.07;9.97;;;-1.00;99.90;;;;;;5050525;28;20181;-71
2024/01/17 02:51:47;;;;;;;12.93;10.57;;;-1.00;99.90;;;;;;5051090;28;20232;-71
2024/01/17 02:54:13;;;;;;;15.50;10.30;;;-1.00;99.90;;;;;;5047799;28;20238;-71
2024/01/17 02:56:39;;;;;;;17.70;10.63;;;-1.10;99.90;;;;;;5052154;28;20260;-71
2024/01/17 02:59:06;;;;;;;17.17;10.10;;;-1.10;99.90;;;;;;5050429;28;20182;-72
2024/01/17 03:01:31;;;;;;;17.07;11.07;;;-1.10;99.90;;;;;;5045366;28;20682;-71
2024/01/17 03:03:57;;;;;;;16.37;11.67;;;-1.20;99.90;;;;;;5046718;28;20452;-71
2024/01/17 03:06:22;;;;;;;14.50;9.70;;;-1.20;99.90;;;;;;5044989;28;20253;-72
2024/01/17 03:08:48;;;;;;;15.70;10.50;;;-1.20;99.90;;;;;;5050801;28;20173;-71
2024/01/17 03:11:14;;;;;;;21.57;11.97;;;-1.20;99.90;;;;;;5047491;28;20193;-72
2024/01/17 03:13:39;;;;;;;18.27;10.47;;;-1.10;99.90;;;;;;5050552;28;20226;-71
2024/01/17 03:16:05;;;;;;;17.33;10.80;;;-1.00;99.90;;;;;;5047982;28;20197;-72
2024/01/17 03:18:30;;;;;;;15.53;11.57;;;-0.90;99.90;;;;;;5049389;28;20192;-71
2024/01/17 03:20:56;;;;;;;14.40;11.50;;;-0.80;99.90;;;;;;5050866;28;20201;-72
2024/01/17 03:23:21;;;;;;;16.80;12.37;;;-0.80;99.90;;;;;;5051602;28;20212;-71
2024/01/17 03:25:47;;;;;;;18.70;13.97;;;-0.80;99.90;;;;;;5049535;28;20178;-71
2024/01/17 03:28:13;;;;;;;13.50;11.03;;;-0.80;99.90;;;;;;5047544;28;20186;-71
2024/01/17 03:30:38;;;;;;;17.63;11.90;;;-0.70;99.90;;;;;;5051716;28;20189;-71
2024/01/17 03:33:04;;;;;;;16.37;12.27;;;-0.80;99.90;;;;;;5051730;28;20178;-72
2024/01/17 03:35:29;;;;;;;17.47;11.13;;;-0.80;99.90;;;;;;5050252;28;20177;-71
2024/01/17 03:37:55;;;;;;;18.20;12.83;;;-0.80;99.90;;;;;;5050537;28;20200;-71
2024/01/17 03:40:21;;;;;;;14.30;11.10;;;-0.70;99.90;;;;;;5049473;28;20210;-71
2024/01/17 03:42:46;;;;;;;22.30;12.37;;;-0.60;99.90;;;;;;5051225;28;20285;-71
2024/01/17 03:45:12;;;;;;;16.77;12.70;;;-0.50;99.90;;;;;;5043319;28;20176;-71
2024/01/17 03:47:38;;;;;;;17.93;13.43;;;-0.50;99.90;;;;;;5050797;28;20166;-71
2024/01/17 03:50:04;;;;;;;15.87;11.60;;;-0.40;99.90;;;;;;5041482;28;20494;-72
2024/01/17 03:52:30;;;;;;;16.33;12.60;;;-0.30;99.90;;;;;;5047957;28;20265;-71
2024/01/17 03:54:55;;;;;;;16.07;13.00;;;-0.30;99.90;;;;;;5051256;28;20529;-71
2024/01/17 03:57:21;;;;;;;17.13;12.87;;;-0.20;99.90;;;;;;5050782;28;20188;-71
2024/01/17 03:59:46;;;;;;;19.80;12.20;;;-0.20;99.90;;;;;;5051441;28;20188;-71
2024/01/17 04:02:12;;;;;;;19.30;12.50;;;-0.20;99.90;;;;;;5050532;28;20255;-71
2024/01/17 04:04:44;;;;;;;19.03;13.83;;;-0.20;99.90;;;;;;5050438;28;20192;-71
2024/01/17 04:07:10;;;;;;;15.80;13.20;;;-0.10;99.90;;;;;;5050643;28;20256;-71
2024/01/17 04:09:35;;;;;;;15.83;14.13;;;-0.10;99.90;;;;;;5051373;28;20428;-72
2024/01/17 04:12:01;;;;;;;15.00;12.93;;;0.00;99.90;;;;;;5051129;28;20247;-71
2024/01/17 04:14:26;;;;;;;13.70;12.17;;;-0.10;99.90;;;;;;5048896;28;20209;-71
2024/01/17 04:16:52;;;;;;;16.23;12.73;;;-0.10;99.90;;;;;;5049482;28;20169;-71
2024/01/17 04:19:17;;;;;;;15.80;13.27;;;0.00;99.90;;;;;;5050029;28;20207;-72
2024/01/17 04:21:43;;;;;;;19.40;15.30;;;0.00;99.90;;;;;;5051048;28;20201;-70
2024/01/17 04:24:08;;;;;;;15.93;13.10;;;0.10;99.90;;;;;;5048540;28;20217;-69
2024/01/17 04:26:34;;;;;;;20.67;13.57;;;0.20;99.90;;;;;;5050464;28;20635;-70
2024/01/17 04:28:59;;;;;;;21.77;13.90;;;0.20;99.90;;;;;;5050700;28;20177;-70
2024/01/17 04:31:26;;;;;;;17.43;13.57;;;0.20;99.90;;;;;;5050711;28;20185;-70
2024/01/17 04:33:52;;;;;;;19.77;13.20;;;0.30;99.90;;;;;;5051195;28;20674;-70
2024/01/17 04:36:19;;;;;;;18.87;13.80;;;0.30;99.90;;;;;;5048490;28;20451;-70
2024/01/17 04:38:45;;;;;;;21.90;13.23;;;0.40;99.90;;;;;;5050715;28;20507;-70
2024/01/17 04:41:11;;;;;;;17.40;13.90;;;0.30;99.90;;;;;;5050272;28;20570;-70
2024/01/17 04:43:38;;;;;;;18.33;14.27;;;0.30;99.90;;;;;;5051005;28;20189;-70
2024/01/17 04:46:04;;;;;;;23.60;14.20;;;0.20;99.90;;;;;;5043087;28;20472;-70
2024/01/17 04:48:29;;;;;;;17.27;12.87;;;0.10;99.90;;;;;;5047744;28;20459;-70
2024/01/17 04:50:58;;;;;;;25.37;14.73;;;0.10;99.90;;;;;;5053592;28;20284;-70
2024/01/17 04:53:24;;;;;;;24.10;17.03;;;0.00;99.90;;;;;;5047302;28;20178;-69
2024/01/17 04:55:50;;;;;;;22.57;16.33;;;0.00;99.90;;;;;;5053621;28;20455;-69
2024/01/17 04:58:17;;;;;;;23.70;15.43;;;0.00;99.90;;;;;;5054101;28;20416;-70
2024/01/17 05:00:46;;;;;;;26.27;16.40;;;0.00;99.90;;;;;;5054373;28;20197;-69
2024/01/17 05:03:11;;;;;;;19.00;15.10;;;0.00;99.90;;;;;;5051562;28;20500;-70
2024/01/17 05:05:37;;;;;;;22.30;15.90;;;0.00;99.90;;;;;;5041847;28;20513;-69
2024/01/17 05:08:03;;;;;;;23.17;15.40;;;0.10;99.90;;;;;;5052483;28;20252;-70
2024/01/17 05:10:29;;;;;;;22.40;14.73;;;0.10;99.90;;;;;;5053459;28;20181;-70
2024/01/17 05:12:54;;;;;;;30.83;16.87;;;0.10;99.90;;;;;;5052925;28;20442;-70
2024/01/17 05:15:20;;;;;;;23.20;15.87;;;0.20;99.90;;;;;;5052479;28;20257;-70
2024/01/17 05:17:45;;;;;;;28.60;17.20;;;0.30;99.90;;;;;;5053606;28;20181;-70
2024/01/17 05:20:11;;;;;;;24.50;14.30;;;0.40;99.90;;;;;;5039888;28;20573;-70
2024/01/17 05:22:39;;;;;;;25.33;16.37;;;0.40;99.90;;;;;;5053236;28;20197;-70
2024/01/17 05:25:07;;;;;;;21.13;15.87;;;0.40;99.90;;;;;;5052875;28;20432;-70
2024/01/17 05:27:32;;;;;;;23.43;17.17;;;0.30;99.90;;;;;;5048432;28;20425;-70
2024/01/17 05:29:58;;;;;;;33.23;16.77;;;0.30;99.90;;;;;;5036537;28;20420;-70
2024/01/17 05:32:23;;;;;;;19.77;15.20;;;0.20;99.90;;;;;;5053003;28;20174;-70
2024/01/17 05:34:50;;;;;;;22.30;16.50;;;0.20;99.90;;;;;;5053796;28;20227;-70
2024/01/17 05:37:16;;;;;;;24.00;15.80;;;0.20;99.90;;;;;;5053244;28;20176;-70
2024/01/17 05:39:41;;;;;;;26.10;15.63;;;0.20;99.90;;;;;;5052574;28;20421;-70
2024/01/17 05:42:07;;;;;;;21.97;16.67;;;0.30;99.90;;;;;;5052089;28;20224;-70
2024/01/17 05:44:32;;;;;;;22.57;15.87;;;0.30;99.90;;;;;;5053602;28;20241;-70
2024/01/17 05:46:58;;;;;;;24.10;16.30;;;0.30;99.90;;;;;;5052737;28;20182;-70
2024/01/17 05:49:24;;;;;;;27.60;16.40;;;0.40;99.90;;;;;;5053854;28;20188;-70
2024/01/17 05:51:50;;;;;;;27.57;16.17;;;0.40;99.90;;;;;;5052918;28;20468;-70
2024/01/17 05:54:15;;;;;;;23.47;16.60;;;0.40;99.90;;;;;;5053691;28;20576;-70
2024/01/17 05:56:41;;;;;;;27.90;16.80;;;0.40;99.90;;;;;;5052216;28;20673;-70
2024/01/17 05:59:06;;;;;;;20.30;16.23;;;0.50;99.90;;;;;;5050670;28;20181;-70
2024/01/17 06:01:34;;;;;;;25.40;17.30;;;0.50;99.90;;;;;;5051069;28;20205;-70
2024/01/17 06:03:59;;;;;;;24.30;17.13;;;0.60;99.90;;;;;;5041929;28;20251;-70
2024/01/17 06:06:25;;;;;;;22.37;16.23;;;0.70;99.90;;;;;;5049364;28;20436;-70
2024/01/17 06:08:50;;;;;;;23.13;16.57;;;0.70;99.90;;;;;;5041804;28;20174;-70
2024/01/17 06:11:16;;;;;;;34.00;17.90;;;0.70;99.90;;;;;;5041131;28;20736;-70
2024/01/17 06:13:42;;;;;;;22.30;17.00;;;0.80;99.90;;;;;;5050297;28;20177;-70
2024/01/17 06:16:07;;;;;;;21.90;15.70;;;0.70;99.90;;;;;;5049922;28;20497;-70
2024/01/17 06:18:33;;;;;;;23.57;16.27;;;0.80;99.90;;;;;;5050082;28;20818;-70
2024/01/17 06:20:59;;;;;;;26.73;16.53;;;0.70;99.90;;;;;;5049474;28;20197;-70
2024/01/17 06:23:24;;;;;;;33.40;21.00;;;0.70;99.90;;;;;;5052085;28;20969;-70
2024/01/17 06:25:50;;;;;;;29.60;18.60;;;0.60;99.90;;;;;;5046678;28;20260;-70
2024/01/17 06:28:18;;;;;;;28.60;17.77;;;0.50;99.90;;;;;;5033463;28;20643;-70
2024/01/17 06:30:43;;;;;;;24.03;16.87;;;0.50;99.90;;;;;;5035384;28;20573;-70
2024/01/17 06:33:10;;;;;;;29.00;18.37;;;0.40;99.90;;;;;;5053079;28;20499;-70
2024/01/17 06:35:35;;;;;;;34.27;20.53;;;0.40;99.90;;;;;;5053082;28;20217;-70
2024/01/17 06:38:01;;;;;;;34.37;20.07;;;0.40;99.90;;;;;;5052740;28;20451;-70
2024/01/17 06:40:27;;;;;;;30.17;22.67;;;0.40;99.90;;;;;;5052722;28;20197;-70
2024/01/17 06:42:52;;;;;;;31.50;20.20;;;0.40;99.90;;;;;;5045165;28;20553;-70
2024/01/17 06:45:18;;;;;;;33.43;19.07;;;0.40;99.90;;;;;;5032984;28;20197;-70
2024/01/17 06:47:43;;;;;;;29.90;21.60;;;0.40;99.90;;;;;;5032494;28;20167;-69
2024/01/17 06:50:09;;;;;;;32.17;20.20;;;0.40;99.90;;;;;;5032715;28;20190;-70
2024/01/17 06:52:35;;;;;;;34.80;20.73;;;0.40;99.90;;;;;;5050055;28;20173;-70
2024/01/17 06:55:01;;;;;;;26.77;18.37;;;0.40;99.90;;;;;;5052592;28;20430;-70
2024/01/17 06:57:26;;;;;;;29.30;20.70;;;0.40;99.90;;;;;;5052163;28;20239;-70
2024/01/17 06:59:52;;;;;;;30.60;21.90;;;0.40;99.90;;;;;;5052564;28;20177;-70
2024/01/17 07:02:17;;;;;;;38.03;23.13;;;0.40;99.90;;;;;;5052202;28;20597;-70
2024/01/17 07:04:43;;;;;;;39.30;22.70;;;0.50;99.90;;;;;;5052523;28;20800;-70
2024/01/17 07:07:08;;;;;;;37.77;22.00;;;0.50;99.90;;;;;;5040669;28;20620;-70
2024/01/17 07:09:34;;;;;;;31.80;22.33;;;0.50;99.90;;;;;;5031671;28;20177;-69
2024/01/17 07:12:00;;;;;;;31.77;20.80;;;0.50;99.90;;;;;;5040630;28;20217;-69
2024/01/17 07:14:25;;;;;;;39.60;22.00;;;0.50;99.90;;;;;;5052230;28;20174;-70
2024/01/17 07:16:51;;;;;;;31.47;20.10;;;0.50;99.90;;;;;;5051714;28;20432;-69
2024/01/17 07:19:16;;;;;;;37.40;22.43;;;0.50;99.90;;;;;;5052330;28;20166;-70
2024/01/17 07:21:42;;;;;;;35.70;21.00;;;0.60;99.90;;;;;;5052161;28;20246;-69
2024/01/17 07:24:10;;;;;;;34.60;21.03;;;0.60;99.90;;;;;;5052045;28;20228;-70
2024/01/17 07:26:36;;;;;;;32.33;21.73;;;0.80;99.90;;;;;;5051167;28;20177;-70
2024/01/17 07:29:02;;;;;;;34.20;21.90;;;0.80;99.90;;;;;;5052058;28;20457;-70
2024/01/17 07:31:28;;;;;;;36.73;22.53;;;0.90;99.90;;;;;;5051990;28;20907;-70
2024/01/17 07:33:53;;;;;;;37.23;23.53;;;0.90;99.90;;;;;;5052002;28;20173;-70
2024/01/17 07:36:19;;;;;;;33.70;23.33;;;1.00;99.90;;;;;;5051797;28;20184;-70
2024/01/17 07:38:44;;;;;;;39.93;24.27;;;1.00;99.90;;;;;;5051680;28;20651;-70
2024/01/17 07:41:10;;;;;;;31.80;22.37;;;1.10;99.90;;;;;;5051739;28;20213;-70
2024/01/17 07:43:35;;;;;;;33.10;20.93;;;1.10;99.90;;;;;;5052204;28;20201;-70
2024/01/17 07:46:01;;;;;;;35.53;23.70;;;1.10;99.90;;;;;;5051609;28;20666;-71
2024/01/17 07:48:26;;;;;;;35.47;24.13;;;1.10;99.90;;;;;;5051843;28;20174;-71
2024/01/17 07:50:52;;;;;;;33.97;22.40;;;1.20;99.90;;;;;;5051787;28;20185;-71
2024/01/17 07:53:17;;;;;;;40.53;22.90;;;1.20;99.90;;;;;;5051949;28;20681;-71
2024/01/17 07:55:43;;;;;;;41.07;24.60;;;1.20;99.90;;;;;;5051903;28;20262;-71
2024/01/17 07:58:10;;;;;;;34.93;22.93;;;1.20;99.90;;;;;;5051453;28;20204;-70
2024/01/17 08:00:35;;;;;;;34.10;22.70;;;1.20;99.90;;;;;;5051751;28;20197;-71
2024/01/17 08:03:01;;;;;;;42.33;23.90;;;1.20;99.90;;;;;;5051784;28;20458;-70
2024/01/17 08:05:26;;;;;;;37.77;26.83;;;1.20;99.90;;;;;;5051958;28;20173;-71
2024/01/17 08:07:52;;;;;;;38.57;25.10;;;1.20;99.90;;;;;;5051530;28;20169;-71
2024/01/17 08:10:17;;;;;;;40.67;25.87;;;1.20;99.90;;;;;;5042393;28;20194;-71
2024/01/17 08:12:44;;;;;;;40.53;25.13;;;1.30;99.90;;;;;;5033312;28;20181;-71
2024/01/17 08:15:10;;;;;;;33.20;24.83;;;1.30;99.90;;;;;;5031733;28;20174;-71
2024/01/17 08:17:36;;;;;;;36.20;23.17;;;1.40;99.90;;;;;;5031665;28;20428;-70
2024/01/17 08:20:03;;;;;;;38.30;24.40;;;1.40;99.90;;;;;;5031991;28;20205;-70
2024/01/17 08:22:29;;;;;;;38.50;23.30;;;1.40;99.90;;;;;;5051023;28;20429;-70
2024/01/17 08:24:54;;;;;;;37.40;23.27;;;1.50;99.90;;;;;;5055505;28;20435;-70
2024/01/17 08:27:19;;;;;;;36.23;23.97;;;1.50;99.90;;;;;;5054617;28;20173;-70
2024/01/17 08:29:46;;;;;;;41.40;26.20;;;1.50;99.90;;;;;;5055109;28;20179;-70
2024/01/17 08:32:11;;;;;;;36.10;23.10;;;1.60;99.90;;;;;;5054692;28;20212;-71
2024/01/17 08:34:37;;;;;;;37.10;25.00;;;1.60;99.90;;;;;;5055451;28;20420;-70
2024/01/17 08:37:03;;;;;;;37.60;24.03;;;1.60;99.90;;;;;;5054897;28;20174;-70
2024/01/17 08:39:29;;;;;;;38.37;26.30;;;1.70;99.90;;;;;;5055311;28;20177;-69
2024/01/17 08:41:54;;;;;;;34.63;25.20;;;1.70;99.90;;;;;;5055053;28;20835;-70
2024/01/17 08:44:20;;;;;;;40.00;25.30;;;1.80;99.90;;;;;;5054295;28;20206;-70
2024/01/17 08:46:46;;;;;;;38.73;23.60;;;1.90;99.90;;;;;;5054770;28;20173;-70
2024/01/17 08:49:14;;;;;;;31.57;21.87;;;2.00;99.90;;;;;;5054544;28;20589;-69
2024/01/17 08:51:39;;;;;;;36.30;23.37;;;2.10;99.90;;;;;;5054199;28;20529;-70
2024/01/17 08:54:05;;;;;;;35.03;22.70;;;1.90;99.90;;;;;;5054726;28;21236;-71
2024/01/17 08:56:31;;;;;;;33.27;22.47;;;1.80;99.90;;;;;;5054255;28;20260;-70
2024/01/17 08:58:56;;;;;;;35.87;22.00;;;1.80;99.90;;;;;;5054861;28;20257;-70
2024/01/17 09:01:22;;;;;;;36.17;23.20;;;1.80;99.90;;;;;;5054521;28;20581;-70
2024/01/17 09:03:48;;;;;;;40.33;22.20;;;1.80;99.90;;;;;;5054527;28;20182;-71
2024/01/17 09:06:13;;;;;;;35.03;21.77;;;1.80;99.90;;;;;;5034649;28;20171;-71
2024/01/17 09:08:39;;;;;;;39.80;23.87;;;1.80;99.90;;;;;;5034524;28;20529;-70
2024/01/17 09:11:05;;;;;;;33.10;23.60;;;1.90;99.90;;;;;;5036444;28;20190;-71
2024/01/17 09:13:31;;;;;;;36.90;22.67;;;1.90;99.90;;;;;;5054600;28;20174;-70
2024/01/17 09:15:57;;;;;;;42.87;24.80;;;1.90;99.90;;;;;;5053325;28;20944;-69
2024/01/17 09:18:23;;;;;;;34.80;21.67;;;2.00;99.90;;;;;;5054212;28;20477;-70
2024/01/17 09:20:48;;;;;;;41.70;24.17;;;2.00;99.90;;;;;;5054039;28;20455;-70
2024/01/17 09:23:14;;;;;;;31.73;22.50;;;2.00;99.90;;;;;;5051625;28;20611;-70
2024/01/17 09:25:39;;;;;;;48.50;21.67;;;2.00;99.90;;;;;;5053913;28;20173;-70
2024/01/17 09:28:05;;;;;;;42.63;24.13;;;2.10;99.90;;;;;;5053622;28;20228;-70
2024/01/17 09:30:31;;;;;;;38.03;24.00;;;2.10;99.90;;;;;;5054183;28;20189;-70
2024/01/17 09:32:57;;;;;;;38.73;24.70;;;2.10;99.90;;;;;;5052926;28;20233;-70
2024/01/17 09:35:22;;;;;;;38.90;23.57;;;2.10;99.90;;;;;;5054176;28;20423;-70
2024/01/17 09:37:48;;;;;;;43.43;23.73;;;2.10;99.90;;;;;;5053860;28;20174;-71
2024/01/17 09:40:13;;;;;;;40.57;24.67;;;2.10;99.90;;;;;;5054067;28;20706;-71
2024/01/17 09:42:40;;;;;;;47.77;25.07;;;2.20;99.90;;;;;;5053805;28;20182;-71
2024/01/17 09:45:08;;;;;;;55.27;25.20;;;2.30;99.90;;;;;;5053904;28;20181;-70
2024/01/17 09:47:36;;;;;;;39.10;23.90;;;2.40;99.90;;;;;;5053772;28;20438;-70
2024/01/17 09:50:02;;;;;;;40.93;24.83;;;2.40;99.90;;;;;;5053744;28;20786;-70
2024/01/17 09:52:29;;;;;;;51.17;23.90;;;2.50;99.90;;;;;;5053690;28;20416;-70
2024/01/17 09:54:58;;;;;;;49.10;23.13;;;2.50;99.90;;;;;;5053756;28;20506;-70
2024/01/17 09:57:25;;;;;;;35.13;22.90;;;2.60;99.90;;;;;;5052737;28;20436;-70
2024/01/17 09:59:59;;;;;;;39.97;22.43;;;2.60;99.90;;;;;;5053596;28;20415;-70
2024/01/17 10:02:27;;;;;;;33.33;20.73;;;2.70;99.90;;;;;;5053465;28;20474;-70
2024/01/17 10:04:55;;;;;;;39.77;20.50;;;2.70;99.90;;;;;;5053388;28;20436;-70
2024/01/17 10:07:20;;;;;;;32.93;19.97;;;2.80;99.90;;;;;;5053441;28;20768;-70
2024/01/17 10:09:46;;;;;;;35.97;18.63;;;2.70;99.90;;;;;;5053665;28;20470;-70
2024/01/17 10:12:13;;;;;;;33.90;17.20;;;2.70;99.90;;;;;;5052215;28;20201;-70
2024/01/17 10:14:40;;;;;;;36.50;21.70;;;2.70;99.90;;;;;;5052291;28;20166;-70
2024/01/17 10:17:06;;;;;;;35.10;19.30;;;2.70;99.90;;;;;;5053298;28;20455;-70
2024/01/17 10:19:33;;;;;;;26.87;18.00;;;2.80;99.90;;;;;;5053513;28;20449;-70
2024/01/17 10:22:02;;;;;;;25.50;17.70;;;2.80;99.90;;;;;;5053097;28;20193;-70
2024/01/17 10:24:30;;;;;;;26.43;17.47;;;2.80;99.90;;;;;;5053343;28;21016;-70
2024/01/17 10:26:56;;;;;;;31.40;19.27;;;2.90;99.90;;;;;;5052821;28;20788;-73
2024/01/17 10:29:21;;;;;;;30.23;17.80;;;2.90;99.90;;;;;;5053274;28;20503;-69
2024/01/17 10:31:47;;;;;;;33.00;18.77;;;2.90;99.90;;;;;;5052518;28;20288;-73
2024/01/17 10:34:12;;;;;;;25.83;16.17;;;2.90;99.90;;;;;;5053179;28;20178;-71
2024/01/17 10:36:39;;;;;;;28.63;18.10;;;2.80;99.90;;;;;;5052808;28;20174;-71
2024/01/17 10:39:05;;;;;;;29.80;17.87;;;2.80;99.90;;;;;;5053124;28;20174;-70
2024/01/17 10:41:31;;;;;;;37.23;17.50;;;2.80;99.90;;;;;;5052084;28;20471;-70
2024/01/17 10:44:00;;;;;;;34.87;18.27;;;2.70;99.90;;;;;;5052606;28;20274;-73
2024/01/17 10:46:26;;;;;;;34.37;19.13;;;2.70;99.90;;;;;;5052457;28;20526;-74
2024/01/17 10:48:51;;;;;;;44.83;20.37;;;2.70;99.90;;;;;;5052930;28;20941;-74
2024/01/17 10:51:22;;;;;;;26.60;18.07;;;2.70;99.90;;;;;;5052587;28;20674;-73
2024/01/17 10:53:49;;;;;;;30.87;20.30;;;2.70;99.90;;;;;;5052919;28;20170;-73
2024/01/17 10:56:20;;;;;;;36.50;20.37;;;2.70;99.90;;;;;;5051005;28;20499;-74
2024/01/17 10:58:55;;;;;;;34.43;21.53;;;2.70;99.90;;;;;;5041165;28;20481;-73
2024/01/17 11:01:41;;;;;;;27.83;19.70;;;2.70;99.90;;;;;;5052411;28;20467;-74
2024/01/17 11:04:20;;;;;;;32.37;20.50;;;2.70;99.90;;;;;;5052090;28;20467;-73
2024/01/17 11:06:48;;;;;;;36.60;21.40;;;2.80;99.90;;;;;;5048899;28;20423;-73
2024/01/17 11:09:19;;;;;;;35.63;21.60;;;2.80;99.90;;;;;;5043219;28;20995;-74
2024/01/17 11:11:46;;;;;;;33.17;22.67;;;2.80;99.90;;;;;;5045122;28;20440;-73
2024/01/17 11:14:13;;;;;;;32.70;22.17;;;2.80;99.90;;;;;;5035832;28;21757;-74
2024/01/17 11:16:42;;;;;;;29.77;20.03;;;2.80;99.90;;;;;;5043373;28;20490;-73
2024/01/17 11:19:09;;;;;;;29.83;20.70;;;2.90;99.90;;;;;;5041258;28;20507;-73
2024/01/17 11:21:36;;;;;;;23.00;18.20;;;3.00;99.90;;;;;;5041096;28;20475;-71
2024/01/17 11:24:17;;;;;;;25.07;17.87;;;3.00;99.90;;;;;;5041465;28;20538;-73
2024/01/17 11:27:28;;;;;;;23.43;16.47;;;3.10;99.90;;;;;;5032299;28;20417;-74
2024/01/17 11:30:18;;;;;;;26.60;16.27;;;3.10;99.90;;;;;;5038104;28;20797;-72
2024/01/17 11:33:02;;;;;;;18.00;12.33;;;3.10;99.90;;;;;;5051833;28;20420;-73
2024/01/17 11:35:50;;;;;;;16.93;11.50;;;3.20;99.90;;;;;;5052207;28;20924;-72
2024/01/17 11:38:24;;;;;;;15.40;12.43;;;3.30;99.90;;;;;;5051830;28;20466;-73
2024/01/17 11:40:55;;;;;;;17.60;11.30;;;3.30;99.90;;;;;;5051797;28;20456;-73
2024/01/17 11:43:21;;;;;;;16.53;10.90;;;3.40;99.90;;;;;;5051365;28;20467;-73
2024/01/17 11:45:50;;;;;;;11.77;9.13;;;3.50;99.90;;;;;;5051997;28;20427;-73
2024/01/17 11:48:19;;;;;;;11.10;9.10;;;3.60;99.90;;;;;;5051670;28;20166;-73
2024/01/17 11:51:14;;;;;;;12.20;9.80;;;3.70;99.90;;;;;;5051847;28;20949;-73
2024/01/17 11:53:53;;;;;;;14.10;8.93;;;3.80;99.90;;;;;;5047180;28;20448;-73
2024/01/17 11:56:24;;;;;;;9.40;7.63;;;3.90;99.90;;;;;;5051250;28;20860;-73
2024/01/17 11:58:58;;;;;;;10.30;7.80;;;4.00;99.90;;;;;;5051651;28;20436;-72
2024/01/17 12:01:40;;;;;;;10.63;6.97;;;4.00;99.90;;;;;;5051683;28;20519;-73
2024/01/17 12:04:18;;;;;;;8.97;6.20;;;4.10;99.90;;;;;;5051359;28;20467;-73
2024/01/17 12:06:51;;;;;;;11.80;6.73;;;4.20;99.90;;;;;;5051427;28;20416;-73
2024/01/17 12:09:20;;;;;;;6.90;6.03;;;4.30;99.90;;;;;;5051767;28;20424;-73
2024/01/17 12:11:46;;;;;;;9.90;7.20;;;4.30;99.90;;;;;;5050708;28;20432;-74
2024/01/17 12:14:15;;;;;;;8.27;5.90;;;4.40;99.90;;;;;;5051427;28;20420;-73
2024/01/17 12:16:42;;;;;;;10.50;6.90;;;4.50;99.90;;;;;;5051067;28;20424;-73
2024/01/17 12:19:10;;;;;;;7.00;5.30;;;4.50;99.90;;;;;;5051655;28;20424;-73
2024/01/17 12:21:36;;;;;;;9.47;6.90;;;4.60;99.90;;;;;;5051617;28;20488;-74
2024/01/17 12:24:02;;;;;;;9.37;6.47;;;4.60;99.90;;;;;;5051321;28;20468;-73
2024/01/17 12:26:27;;;;;;;7.60;6.77;;;4.70;99.90;;;;;;5050929;28;20455;-72
2024/01/17 12:29:09;;;;;;;8.03;6.40;;;4.70;99.90;;;;;;5047829;28;20177;-73
2024/01/17 12:31:36;;;;;;;7.77;5.30;;;4.70;99.90;;;;;;5051347;28;20205;-74
2024/01/17 12:34:02;;;;;;;9.07;6.33;;;4.70;99.90;;;;;;5051093;28;20430;-74